sensor_id;sensor_type;location;lat;lon;timestamp;pressure;altitude;pressure_sealevel;temperature;humidity
76973;BME280;65907;53.640;10.050;2023-08-07T00:01:59;100020.13;;;25.25;44.93
76973;BME280;65907;53.640;10.050;2023-08-07T00:04:24;100026.66;;;25.29;44.58
76973;BME280;65907;53.640;10.050;2023-08-07T00:06:52;100025.03;;;25.28;44.93
76973;BME280;65907;53.640;10.050;2023-08-07T00:09:20;100022.69;;;25.33;44.67
76973;BME280;65907;53.640;10.050;2023-08-07T00:11:48;100023.75;;;25.24;44.91
76973;BME280;65907;53.640;10.050;2023-08-07T00:14:15;100019.59;;;25.30;44.89
76973;BME280;65907;53.640;10.050;2023-08-07T00:16:41;100029.47;;;25.28;44.77
76973;BME280;65907;53.640;10.050;2023-08-07T00:19:06;100031.16;;;25.20;44.87
76973;BME280;65907;53.640;10.050;2023-08-07T00:21:31;100019.63;;;25.22;44.97
76973;BME280;65907;53.640;10.050;2023-08-07T00:23:57;100031.75;;;25.31;44.77
76973;BME280;65907;53.640;10.050;2023-08-07T00:26:22;100038.03;;;25.30;44.89
76973;BME280;65907;53.640;10.050;2023-08-07T00:28:47;100033.09;;;25.27;44.82
76973;BME280;65907;53.640;10.050;2023-08-07T00:31:15;100026.31;;;25.32;44.84
76973;BME280;65907;53.640;10.050;2023-08-07T00:33:40;100026.06;;;25.19;44.88
76973;BME280;65907;53.640;10.050;2023-08-07T00:36:05;100030.78;;;25.32;44.70
76973;BME280;65907;53.640;10.050;2023-08-07T00:38:30;100036.53;;;25.27;44.77
76973;BME280;65907;53.640;10.050;2023-08-07T00:40:56;100039.00;;;25.29;44.74
76973;BME280;65907;53.640;10.050;2023-08-07T00:43:21;100045.78;;;25.23;44.83
76973;BME280;65907;53.640;10.050;2023-08-07T00:45:48;100044.59;;;25.26;44.79
76973;BME280;65907;53.640;10.050;2023-08-07T00:48:14;100042.16;;;25.24;44.73
76973;BME280;65907;53.640;10.050;2023-08-07T00:50:41;100038.53;;;25.25;44.84
76973;BME280;65907;53.640;10.050;2023-08-07T00:53:09;100042.78;;;25.26;44.80
76973;BME280;65907;53.640;10.050;2023-08-07T00:55:34;100046.06;;;25.28;44.64
76973;BME280;65907;53.640;10.050;2023-08-07T00:58:00;100043.94;;;25.24;44.74
76973;BME280;65907;53.640;10.050;2023-08-07T01:00:27;100046.41;;;25.25;44.64
76973;BME280;65907;53.640;10.050;2023-08-07T01:02:55;100053.03;;;25.21;44.94
76973;BME280;65907;53.640;10.050;2023-08-07T01:05:21;100049.34;;;25.30;44.78
76973;BME280;65907;53.640;10.050;2023-08-07T01:07:47;100054.31;;;25.25;44.91
76973;BME280;65907;53.640;10.050;2023-08-07T01:10:13;100042.97;;;25.25;44.78
76973;BME280;65907;53.640;10.050;2023-08-07T01:13:13;100039.03;;;25.20;44.82
76973;BME280;65907;53.640;10.050;2023-08-07T01:15:30;100042.50;;;25.21;44.83
76973;BME280;65907;53.640;10.050;2023-08-07T01:17:57;100038.47;;;25.33;44.59
76973;BME280;65907;53.640;10.050;2023-08-07T01:20:22;100043.09;;;25.31;44.60
76973;BME280;65907;53.640;10.050;2023-08-07T01:22:50;100044.31;;;25.20;44.98
76973;BME280;65907;53.640;10.050;2023-08-07T01:25:16;100049.06;;;25.25;44.62
76973;BME280;65907;53.640;10.050;2023-08-07T01:28:00;100048.22;;;25.25;44.73
76973;BME280;65907;53.640;10.050;2023-08-07T01:30:33;100042.50;;;25.21;44.82
76973;BME280;65907;53.640;10.050;2023-08-07T01:33:24;100049.06;;;25.25;44.78
76973;BME280;65907;53.640;10.050;2023-08-07T01:35:54;100045.66;;;25.16;44.95
76973;BME280;65907;53.640;10.050;2023-08-07T01:38:21;100046.28;;;25.18;44.94
76973;BME280;65907;53.640;10.050;2023-08-07T01:40:49;100038.53;;;25.25;44.72
76973;BME280;65907;53.640;10.050;2023-08-07T01:43:15;100032.63;;;25.23;44.71
76973;BME280;65907;53.640;10.050;2023-08-07T01:45:41;100041.88;;;25.19;44.87
76973;BME280;65907;53.640;10.050;2023-08-07T01:48:06;100039.75;;;25.14;44.89
76973;BME280;65907;53.640;10.050;2023-08-07T01:50:34;100036.88;;;25.24;44.52
76973;BME280;65907;53.640;10.050;2023-08-07T01:52:59;100041.81;;;25.27;44.63
76973;BME280;65907;53.640;10.050;2023-08-07T01:55:27;100038.09;;;25.13;44.83
76973;BME280;65907;53.640;10.050;2023-08-07T01:57:52;100038.25;;;25.20;44.89
76973;BME280;65907;53.640;10.050;2023-08-07T02:00:18;100037.53;;;25.26;44.73
76973;BME280;65907;53.640;10.050;2023-08-07T02:02:43;100022.63;;;25.18;44.84
76973;BME280;65907;53.640;10.050;2023-08-07T02:05:11;100031.50;;;25.17;44.89
76973;BME280;65907;53.640;10.050;2023-08-07T02:07:37;100028.88;;;25.17;44.66
76973;BME280;65907;53.640;10.050;2023-08-07T02:10:02;100027.66;;;25.28;44.87
76973;BME280;65907;53.640;10.050;2023-08-07T02:12:27;100026.44;;;25.16;44.84
76973;BME280;65907;53.640;10.050;2023-08-07T02:14:54;100021.81;;;25.18;44.87
76973;BME280;65907;53.640;10.050;2023-08-07T02:17:22;100018.69;;;25.14;44.96
76973;BME280;65907;53.640;10.050;2023-08-07T02:19:48;100018.13;;;25.27;44.80
76973;BME280;65907;53.640;10.050;2023-08-07T02:22:13;100028.16;;;25.24;44.59
76973;BME280;65907;53.640;10.050;2023-08-07T02:24:38;100025.09;;;25.20;44.93
76973;BME280;65907;53.640;10.050;2023-08-07T02:27:03;100023.44;;;25.19;44.86
76973;BME280;65907;53.640;10.050;2023-08-07T02:29:29;100021.09;;;25.24;44.45
76973;BME280;65907;53.640;10.050;2023-08-07T02:31:55;100021.16;;;25.16;44.92
76973;BME280;65907;53.640;10.050;2023-08-07T02:34:20;100029.22;;;25.14;44.89
76973;BME280;65907;53.640;10.050;2023-08-07T02:36:45;100025.94;;;25.12;44.81
76973;BME280;65907;53.640;10.050;2023-08-07T02:39:10;100023.13;;;25.14;44.63
76973;BME280;65907;53.640;10.050;2023-08-07T02:41:35;100026.44;;;25.16;44.74
76973;BME280;65907;53.640;10.050;2023-08-07T02:44:01;100021.31;;;25.14;44.73
76973;BME280;65907;53.640;10.050;2023-08-07T02:46:28;100023.66;;;25.09;44.77
76973;BME280;65907;53.640;10.050;2023-08-07T02:48:53;100028.72;;;25.11;44.86
76973;BME280;65907;53.640;10.050;2023-08-07T02:51:19;100021.31;;;25.14;44.98
76973;BME280;65907;53.640;10.050;2023-08-07T02:53:44;100022.31;;;25.13;44.95
76973;BME280;65907;53.640;10.050;2023-08-07T02:56:09;100028.22;;;25.15;44.91
76973;BME280;65907;53.640;10.050;2023-08-07T02:58:37;100034.47;;;25.14;44.73
76973;BME280;65907;53.640;10.050;2023-08-07T03:01:05;100034.97;;;25.10;45.00
76973;BME280;65907;53.640;10.050;2023-08-07T03:03:34;100036.06;;;25.24;44.69
76973;BME280;65907;53.640;10.050;2023-08-07T03:05:59;100034.63;;;25.21;44.56
76973;BME280;65907;53.640;10.050;2023-08-07T03:08:24;100032.50;;;25.16;44.66
76973;BME280;65907;53.640;10.050;2023-08-07T03:10:50;100032.34;;;25.10;44.82
76973;BME280;65907;53.640;10.050;2023-08-07T03:13:16;100038.44;;;25.10;44.61
76973;BME280;65907;53.640;10.050;2023-08-07T03:15:41;100030.72;;;25.09;44.79
76973;BME280;65907;53.640;10.050;2023-08-07T03:18:06;100025.75;;;25.14;44.80
76973;BME280;65907;53.640;10.050;2023-08-07T03:20:31;100030.72;;;25.09;44.69
76973;BME280;65907;53.640;10.050;2023-08-07T03:22:57;100032.34;;;25.10;44.86
76973;BME280;65907;53.640;10.050;2023-08-07T03:25:22;100036.03;;;25.00;45.16
76973;BME280;65907;53.640;10.050;2023-08-07T03:27:47;100040.59;;;25.06;45.08
76973;BME280;65907;53.640;10.050;2023-08-07T03:30:15;100044.16;;;25.14;44.72
76973;BME280;65907;53.640;10.050;2023-08-07T03:32:43;100040.94;;;25.03;45.06
76973;BME280;65907;53.640;10.050;2023-08-07T03:35:08;100039.94;;;25.04;45.00
76973;BME280;65907;53.640;10.050;2023-08-07T03:37:33;100040.88;;;25.12;44.76
76973;BME280;65907;53.640;10.050;2023-08-07T03:40:01;100044.50;;;25.11;44.80
76973;BME280;65907;53.640;10.050;2023-08-07T03:42:26;100044.56;;;25.02;44.90
76973;BME280;65907;53.640;10.050;2023-08-07T03:44:51;100043.41;;;25.05;45.00
76973;BME280;65907;53.640;10.050;2023-08-07T03:47:16;100052.25;;;25.12;44.81
76973;BME280;65907;53.640;10.050;2023-08-07T03:49:41;100050.78;;;25.10;44.81
76973;BME280;65907;53.640;10.050;2023-08-07T03:52:11;100049.78;;;25.11;44.85
76973;BME280;65907;53.640;10.050;2023-08-07T03:54:36;100050.81;;;25.01;44.97
76973;BME280;65907;53.640;10.050;2023-08-07T03:57:02;100053.28;;;25.03;44.90
76973;BME280;65907;53.640;10.050;2023-08-07T03:59:27;100054.59;;;25.07;44.92
76973;BME280;65907;53.640;10.050;2023-08-07T04:01:52;100061.94;;;25.12;44.63
76973;BME280;65907;53.640;10.050;2023-08-07T04:04:18;100054.53;;;25.15;44.74
76973;BME280;65907;53.640;10.050;2023-08-07T04:06:43;100057.66;;;25.11;44.87
76973;BME280;65907;53.640;10.050;2023-08-07T04:09:09;100057.66;;;25.11;44.69
76973;BME280;65907;53.640;10.050;2023-08-07T04:11:35;100050.00;;;25.01;44.90
76973;BME280;65907;53.640;10.050;2023-08-07T04:14:02;100054.09;;;25.03;44.70
76973;BME280;65907;53.640;10.050;2023-08-07T04:16:29;100054.09;;;25.03;45.01
76973;BME280;65907;53.640;10.050;2023-08-07T04:18:54;100054.59;;;24.99;45.03
76973;BME280;65907;53.640;10.050;2023-08-07T04:21:20;100059.50;;;25.10;44.74
76973;BME280;65907;53.640;10.050;2023-08-07T04:23:45;100057.22;;;25.07;44.88
76973;BME280;65907;53.640;10.050;2023-08-07T04:26:10;100067.09;;;24.97;45.11
76973;BME280;65907;53.640;10.050;2023-08-07T04:28:35;100069.72;;;24.97;45.30
76973;BME280;65907;53.640;10.050;2023-08-07T04:31:03;100070.53;;;25.05;44.82
76973;BME280;65907;53.640;10.050;2023-08-07T04:33:29;100074.78;;;25.06;44.95
76973;BME280;65907;53.640;10.050;2023-08-07T04:35:54;100077.41;;;25.06;44.73
76973;BME280;65907;53.640;10.050;2023-08-07T04:38:19;100081.22;;;25.04;44.94
76973;BME280;65907;53.640;10.050;2023-08-07T04:40:48;100078.41;;;25.05;44.92
76973;BME280;65907;53.640;10.050;2023-08-07T04:43:14;100077.94;;;25.02;45.00
76973;BME280;65907;53.640;10.050;2023-08-07T04:45:39;100085.31;;;25.06;44.72
76973;BME280;65907;53.640;10.050;2023-08-07T04:48:05;100079.41;;;25.04;44.73
76973;BME280;65907;53.640;10.050;2023-08-07T04:50:30;100082.03;;;25.04;44.91
76973;BME280;65907;53.640;10.050;2023-08-07T04:52:55;100083.81;;;25.12;44.81
76973;BME280;65907;53.640;10.050;2023-08-07T04:55:20;100091.88;;;25.11;44.62
76973;BME280;65907;53.640;10.050;2023-08-07T04:57:45;100095.88;;;24.98;45.06
76973;BME280;65907;53.640;10.050;2023-08-07T05:00:12;100091.22;;;25.09;44.48
76973;BME280;65907;53.640;10.050;2023-08-07T05:02:37;100096.53;;;25.00;45.04
76973;BME280;65907;53.640;10.050;2023-08-07T05:05:03;100089.41;;;25.09;44.77
76973;BME280;65907;53.640;10.050;2023-08-07T05:07:29;100095.81;;;25.15;44.57
76973;BME280;65907;53.640;10.050;2023-08-07T05:09:54;100098.31;;;25.00;44.87
76973;BME280;65907;53.640;10.050;2023-08-07T05:12:19;100109.50;;;25.02;44.79
76973;BME280;65907;53.640;10.050;2023-08-07T05:14:44;100102.72;;;25.08;44.70
76973;BME280;65907;53.640;10.050;2023-08-07T05:17:10;100101.09;;;25.06;44.53
76973;BME280;65907;53.640;10.050;2023-08-07T05:19:37;100101.09;;;25.06;44.77
76973;BME280;65907;53.640;10.050;2023-08-07T05:22:02;100100.09;;;25.08;44.65
76973;BME280;65907;53.640;10.050;2023-08-07T05:24:28;100103.38;;;25.10;44.68
76973;BME280;65907;53.640;10.050;2023-08-07T05:26:53;100109.28;;;25.20;44.52
76973;BME280;65907;53.640;10.050;2023-08-07T05:29:18;100108.63;;;25.10;44.60
76973;BME280;65907;53.640;10.050;2023-08-07T05:31:43;100110.81;;;25.06;44.85
76973;BME280;65907;53.640;10.050;2023-08-07T05:34:09;100113.44;;;25.06;44.84
76973;BME280;65907;53.640;10.050;2023-08-07T05:36:34;100110.94;;;25.13;44.67
76973;BME280;65907;53.640;10.050;2023-08-07T05:38:59;100113.75;;;25.11;44.68
76973;BME280;65907;53.640;10.050;2023-08-07T05:41:24;100110.13;;;25.12;44.67
76973;BME280;65907;53.640;10.050;2023-08-07T05:43:49;100116.69;;;25.16;44.53
76973;BME280;65907;53.640;10.050;2023-08-07T05:46:15;100120.00;;;25.10;44.70
76973;BME280;65907;53.640;10.050;2023-08-07T05:48:40;100119.34;;;25.08;44.74
76973;BME280;65907;53.640;10.050;2023-08-07T05:51:05;100126.41;;;25.08;44.63
76973;BME280;65907;53.640;10.050;2023-08-07T05:53:32;100122.28;;;25.13;44.55
76973;BME280;65907;53.640;10.050;2023-08-07T05:55:57;100132.31;;;25.10;44.93
76973;BME280;65907;53.640;10.050;2023-08-07T05:58:22;100134.44;;;25.14;44.63
76973;BME280;65907;53.640;10.050;2023-08-07T06:00:47;100128.22;;;25.07;44.70
76973;BME280;65907;53.640;10.050;2023-08-07T06:03:13;100125.22;;;25.18;44.69
76973;BME280;65907;53.640;10.050;2023-08-07T06:05:38;100116.69;;;25.16;44.32
76973;BME280;65907;53.640;10.050;2023-08-07T06:08:03;100122.44;;;25.12;44.81
76973;BME280;65907;53.640;10.050;2023-08-07T06:10:29;100127.69;;;25.12;44.55
76973;BME280;65907;53.640;10.050;2023-08-07T06:12:54;100130.19;;;25.13;44.62
76973;BME280;65907;53.640;10.050;2023-08-07T06:15:19;100133.00;;;25.03;44.85
76973;BME280;65907;53.640;10.050;2023-08-07T06:17:47;100133.59;;;25.14;44.61
76973;BME280;65907;53.640;10.050;2023-08-07T06:20:16;100130.66;;;25.17;44.42
76973;BME280;65907;53.640;10.050;2023-08-07T06:22:44;100141.38;;;25.07;44.87
76973;BME280;65907;53.640;10.050;2023-08-07T06:25:09;100139.72;;;25.14;44.77
76973;BME280;65907;53.640;10.050;2023-08-07T06:27:34;100138.22;;;25.20;44.58
76973;BME280;65907;53.640;10.050;2023-08-07T06:29:59;100144.31;;;25.12;44.72
76973;BME280;65907;53.640;10.050;2023-08-07T06:32:25;100134.00;;;25.02;44.79
76973;BME280;65907;53.640;10.050;2023-08-07T06:34:50;100137.91;;;25.06;44.78
76973;BME280;65907;53.640;10.050;2023-08-07T06:37:15;100131.66;;;25.16;44.54
76973;BME280;65907;53.640;10.050;2023-08-07T06:39:43;100132.47;;;25.16;44.71
76973;BME280;65907;53.640;10.050;2023-08-07T06:42:08;100140.50;;;25.23;44.52
76973;BME280;65907;53.640;10.050;2023-08-07T06:44:33;100130.97;;;25.22;44.33
76973;BME280;65907;53.640;10.050;2023-08-07T06:46:59;100143.03;;;25.08;44.60
76973;BME280;65907;53.640;10.050;2023-08-07T06:49:24;100140.84;;;25.12;44.90
76973;BME280;65907;53.640;10.050;2023-08-07T06:51:49;100144.81;;;25.08;44.75
76973;BME280;65907;53.640;10.050;2023-08-07T06:54:14;100147.75;;;25.21;44.25
76973;BME280;65907;53.640;10.050;2023-08-07T06:56:39;100144.81;;;25.16;44.61
76973;BME280;65907;53.640;10.050;2023-08-07T06:59:07;100136.59;;;25.11;44.68
76973;BME280;65907;53.640;10.050;2023-08-07T07:01:32;100148.59;;;25.13;44.64
76973;BME280;65907;53.640;10.050;2023-08-07T07:03:58;100143.66;;;25.10;44.75
76973;BME280;65907;53.640;10.050;2023-08-07T07:06:23;100149.75;;;25.11;44.59
76973;BME280;65907;53.640;10.050;2023-08-07T07:08:50;100142.19;;;25.08;44.87
76973;BME280;65907;53.640;10.050;2023-08-07T07:11:19;100145.47;;;25.10;44.79
76973;BME280;65907;53.640;10.050;2023-08-07T07:13:44;100155.84;;;25.11;44.57
76973;BME280;65907;53.640;10.050;2023-08-07T07:16:09;100144.47;;;25.11;44.70
76973;BME280;65907;53.640;10.050;2023-08-07T07:18:36;100149.41;;;25.14;44.51
76973;BME280;65907;53.640;10.050;2023-08-07T07:21:01;100152.03;;;25.14;44.56
76973;BME280;65907;53.640;10.050;2023-08-07T07:23:29;100159.13;;;25.13;44.57
76973;BME280;65907;53.640;10.050;2023-08-07T07:25:57;100161.53;;;25.23;44.30
76973;BME280;65907;53.640;10.050;2023-08-07T07:28:22;100159.91;;;25.14;44.48
76973;BME280;65907;53.640;10.050;2023-08-07T07:30:49;100169.44;;;25.23;44.19
76973;BME280;65907;53.640;10.050;2023-08-07T07:33:14;100163.16;;;25.32;44.34
76973;BME280;65907;53.640;10.050;2023-08-07T07:35:39;100171.88;;;25.25;44.37
76973;BME280;65907;53.640;10.050;2023-08-07T07:38:05;100173.88;;;25.23;44.13
76973;BME280;65907;53.640;10.050;2023-08-07T07:40:31;100177.47;;;25.30;44.39
76973;BME280;65907;53.640;10.050;2023-08-07T07:42:58;100172.09;;;25.15;44.51
76973;BME280;65907;53.640;10.050;2023-08-07T07:45:23;100170.25;;;25.24;44.28
76973;BME280;65907;53.640;10.050;2023-08-07T07:47:49;100177.69;;;25.20;44.28
76973;BME280;65907;53.640;10.050;2023-08-07T07:50:14;100173.38;;;25.27;44.42
76973;BME280;65907;53.640;10.050;2023-08-07T07:52:39;100173.22;;;25.29;44.35
76973;BME280;65907;53.640;10.050;2023-08-07T07:55:04;100173.72;;;25.24;44.52
76973;BME280;65907;53.640;10.050;2023-08-07T07:57:34;100174.50;;;25.33;44.34
76973;BME280;65907;53.640;10.050;2023-08-07T08:00:02;100175.97;;;25.35;44.12
76973;BME280;65907;53.640;10.050;2023-08-07T08:02:29;100182.84;;;25.37;44.10
76973;BME280;65907;53.640;10.050;2023-08-07T08:04:54;100183.84;;;25.35;44.27
76973;BME280;65907;53.640;10.050;2023-08-07T08:07:20;100181.22;;;25.35;44.12
76973;BME280;65907;53.640;10.050;2023-08-07T08:09:45;100187.66;;;25.33;44.21
76973;BME280;65907;53.640;10.050;2023-08-07T08:12:13;100188.44;;;25.42;44.06
76973;BME280;65907;53.640;10.050;2023-08-07T08:14:38;100192.28;;;25.31;44.14
76973;BME280;65907;53.640;10.050;2023-08-07T08:17:03;100191.22;;;25.48;43.86
76973;BME280;65907;53.640;10.050;2023-08-07T08:19:28;100196.72;;;25.30;44.19
76973;BME280;65907;53.640;10.050;2023-08-07T08:21:54;100197.50;;;25.39;44.16
76973;BME280;65907;53.640;10.050;2023-08-07T08:24:19;100199.06;;;25.17;44.44
76973;BME280;65907;53.640;10.050;2023-08-07T08:26:44;100192.06;;;25.41;44.27
76973;BME280;65907;53.640;10.050;2023-08-07T08:29:09;100194.38;;;25.35;44.29
76973;BME280;65907;53.640;10.050;2023-08-07T08:31:37;100192.94;;;25.25;44.30
76973;BME280;65907;53.640;10.050;2023-08-07T08:34:02;100193.19;;;25.46;43.96
76973;BME280;65907;53.640;10.050;2023-08-07T08:36:28;100213.78;;;25.34;44.21
76973;BME280;65907;53.640;10.050;2023-08-07T08:38:56;100207.00;;;25.57;43.47
76973;BME280;65907;53.640;10.050;2023-08-07T08:41:21;100199.59;;;25.60;43.41
76973;BME280;65907;53.640;10.050;2023-08-07T08:43:47;100208.13;;;25.62;43.48
76973;BME280;65907;53.640;10.050;2023-08-07T08:46:14;100211.41;;;25.65;43.38
76973;BME280;65907;53.640;10.050;2023-08-07T08:48:42;100209.94;;;25.62;43.64
76973;BME280;65907;53.640;10.050;2023-08-07T08:51:09;100214.13;;;25.48;44.00
76973;BME280;65907;53.640;10.050;2023-08-07T08:53:36;100221.91;;;25.16;44.59
76973;BME280;65907;53.640;10.050;2023-08-07T08:56:02;100216.69;;;25.56;43.87
76973;BME280;65907;53.640;10.050;2023-08-07T08:58:27;100225.94;;;25.52;43.68
76973;BME280;65907;53.640;10.050;2023-08-07T09:00:53;100224.28;;;25.51;43.71
76973;BME280;65907;53.640;10.050;2023-08-07T09:03:21;100245.69;;;25.48;43.83
76973;BME280;65907;53.640;10.050;2023-08-07T09:05:48;100265.56;;;25.59;43.72
76973;BME280;65907;53.640;10.050;2023-08-07T09:08:14;100267.72;;;25.55;43.74
76973;BME280;65907;53.640;10.050;2023-08-07T09:10:40;100269.09;;;25.26;44.54
76973;BME280;65907;53.640;10.050;2023-08-07T09:13:07;100269.44;;;25.06;44.95
76973;BME280;65907;53.640;10.050;2023-08-07T09:15:34;100262.53;;;25.22;44.73
76973;BME280;65907;53.640;10.050;2023-08-07T09:18:00;100262.50;;;25.39;44.37
76973;BME280;65907;53.640;10.050;2023-08-07T09:20:27;100260.84;;;25.38;44.25
76973;BME280;65907;53.640;10.050;2023-08-07T09:22:53;100263.47;;;25.38;44.05
76973;BME280;65907;53.640;10.050;2023-08-07T09:25:28;100261.50;;;25.31;44.24
76973;BME280;65907;53.640;10.050;2023-08-07T09:27:54;100263.50;;;25.21;44.66
76973;BME280;65907;53.640;10.050;2023-08-07T09:30:20;100262.84;;;25.27;44.34
76973;BME280;65907;53.640;10.050;2023-08-07T09:32:47;100258.88;;;25.31;44.25
76973;BME280;65907;53.640;10.050;2023-08-07T09:35:12;100256.34;;;25.46;44.16
76973;BME280;65907;53.640;10.050;2023-08-07T09:37:37;100250.59;;;25.59;43.67
76973;BME280;65907;53.640;10.050;2023-08-07T09:40:03;100257.47;;;25.69;43.57
76973;BME280;65907;53.640;10.050;2023-08-07T09:42:32;100251.69;;;25.73;43.57
76973;BME280;65907;53.640;10.050;2023-08-07T09:44:59;100259.47;;;25.67;43.63
76973;BME280;65907;53.640;10.050;2023-08-07T09:47:24;100256.81;;;25.67;43.54
76973;BME280;65907;53.640;10.050;2023-08-07T09:49:49;100260.59;;;25.64;43.68
76973;BME280;65907;53.640;10.050;2023-08-07T09:52:19;100265.44;;;25.52;43.97
76973;BME280;65907;53.640;10.050;2023-08-07T09:54:44;100264.13;;;25.48;43.92
76973;BME280;65907;53.640;10.050;2023-08-07T09:57:09;100270.53;;;25.54;44.03
76973;BME280;65907;53.640;10.050;2023-08-07T09:59:34;100273.81;;;25.56;43.89
76973;BME280;65907;53.640;10.050;2023-08-07T10:02:00;100270.03;;;25.50;44.19
76973;BME280;65907;53.640;10.050;2023-08-07T10:04:27;100273.81;;;25.39;44.21
76973;BME280;65907;53.640;10.050;2023-08-07T10:06:52;100279.59;;;25.43;44.29
76973;BME280;65907;53.640;10.050;2023-08-07T10:09:20;100282.06;;;25.53;44.08
76973;BME280;65907;53.640;10.050;2023-08-07T10:11:45;100284.16;;;25.57;43.91
76973;BME280;65907;53.640;10.050;2023-08-07T10:14:12;100284.00;;;25.59;43.96
76973;BME280;65907;53.640;10.050;2023-08-07T10:16:38;100285.16;;;25.65;43.85
76973;BME280;65907;53.640;10.050;2023-08-07T10:19:07;100278.09;;;25.40;44.34
76973;BME280;65907;53.640;10.050;2023-08-07T10:21:33;100285.16;;;25.56;43.90
76973;BME280;65907;53.640;10.050;2023-08-07T10:24:05;100285.16;;;25.56;44.03
76973;BME280;65907;53.640;10.050;2023-08-07T10:26:35;100286.59;;;25.75;43.54
76973;BME280;65907;53.640;10.050;2023-08-07T10:29:02;100277.84;;;25.75;43.47
76973;BME280;65907;53.640;10.050;2023-08-07T10:31:29;100291.50;;;25.79;43.25
76973;BME280;65907;53.640;10.050;2023-08-07T10:33:59;100296.31;;;25.67;43.74
76973;BME280;65907;53.640;10.050;2023-08-07T10:36:26;100292.72;;;25.59;43.93
76973;BME280;65907;53.640;10.050;2023-08-07T10:39:17;100284.94;;;25.74;43.50
76973;BME280;65907;53.640;10.050;2023-08-07T10:41:44;100284.06;;;25.82;43.39
76973;BME280;65907;53.640;10.050;2023-08-07T10:44:17;100292.34;;;25.71;43.52
76973;BME280;65907;53.640;10.050;2023-08-07T10:46:47;100290.41;;;25.56;44.14
76973;BME280;65907;53.640;10.050;2023-08-07T10:49:15;100284.16;;;25.57;43.99
76973;BME280;65907;53.640;10.050;2023-08-07T10:51:55;100295.13;;;25.77;43.68
76973;BME280;65907;53.640;10.050;2023-08-07T10:54:20;100294.78;;;25.81;43.40
76973;BME280;65907;53.640;10.050;2023-08-07T10:56:45;100288.13;;;25.45;44.28
76973;BME280;65907;53.640;10.050;2023-08-07T10:59:19;100301.69;;;25.17;44.92
76973;BME280;65907;53.640;10.050;2023-08-07T11:01:49;100295.22;;;25.36;44.50
76973;BME280;65907;53.640;10.050;2023-08-07T11:04:15;100293.19;;;25.63;43.77
76973;BME280;65907;53.640;10.050;2023-08-07T11:06:41;100277.78;;;25.35;44.27
76973;BME280;65907;53.640;10.050;2023-08-07T11:09:07;100300.28;;;25.46;44.16
76973;BME280;65907;53.640;10.050;2023-08-07T11:14:05;100310.13;;;25.69;43.70
76973;BME280;65907;53.640;10.050;2023-08-07T11:16:30;100317.22;;;25.60;43.92
76973;BME280;65907;53.640;10.050;2023-08-07T11:18:55;100305.56;;;25.54;44.06
76973;BME280;65907;53.640;10.050;2023-08-07T11:21:20;100306.03;;;25.66;43.95
76973;BME280;65907;53.640;10.050;2023-08-07T11:23:51;100296.38;;;25.50;44.14
76973;BME280;65907;53.640;10.050;2023-08-07T11:26:17;100308.34;;;25.44;44.22
76973;BME280;65907;53.640;10.050;2023-08-07T11:28:42;100317.38;;;25.58;43.81
76973;BME280;65907;53.640;10.050;2023-08-07T11:31:07;100313.75;;;25.59;43.88
76973;BME280;65907;53.640;10.050;2023-08-07T11:33:33;100311.97;;;25.60;43.99
76973;BME280;65907;53.640;10.050;2023-08-07T11:36:00;100327.31;;;25.48;44.05
76973;BME280;65907;53.640;10.050;2023-08-07T11:40:57;100342.28;;;25.06;45.07
76973;BME280;65907;53.640;10.050;2023-08-07T11:43:22;100334.22;;;25.16;44.56
76973;BME280;65907;53.640;10.050;2023-08-07T11:45:48;100331.91;;;25.29;44.59
76973;BME280;65907;53.640;10.050;2023-08-07T11:48:13;100346.19;;;25.43;44.19
76973;BME280;65907;53.640;10.050;2023-08-07T11:50:41;100339.44;;;25.57;43.90
76973;BME280;65907;53.640;10.050;2023-08-07T11:53:07;100346.66;;;25.72;43.48
76973;BME280;65907;53.640;10.050;2023-08-07T11:55:33;100343.09;;;25.31;44.38
76973;BME280;65907;53.640;10.050;2023-08-07T11:57:58;100357.25;;;25.39;44.21
76973;BME280;65907;53.640;10.050;2023-08-07T12:00:25;100347.03;;;25.52;43.88
76973;BME280;65907;53.640;10.050;2023-08-07T12:02:51;100342.06;;;25.57;43.75
76973;BME280;65907;53.640;10.050;2023-08-07T12:05:17;100340.75;;;25.70;43.44
76973;BME280;65907;53.640;10.050;2023-08-07T12:07:42;100342.91;;;25.25;44.43
76973;BME280;65907;53.640;10.050;2023-08-07T12:10:08;100346.72;;;25.39;44.19
76973;BME280;65907;53.640;10.050;2023-08-07T12:12:35;100350.00;;;25.49;43.91
76973;BME280;65907;53.640;10.050;2023-08-07T12:15:01;100336.81;;;25.57;43.78
76973;BME280;65907;53.640;10.050;2023-08-07T12:17:26;100336.00;;;25.57;43.79
76973;BME280;65907;53.640;10.050;2023-08-07T12:19:51;100345.03;;;25.62;43.54
76973;BME280;65907;53.640;10.050;2023-08-07T12:22:18;100361.81;;;25.70;43.39
76973;BME280;65907;53.640;10.050;2023-08-07T12:24:45;100363.00;;;25.34;44.08
76973;BME280;65907;53.640;10.050;2023-08-07T12:27:10;100382.88;;;25.37;44.06
76973;BME280;65907;53.640;10.050;2023-08-07T12:29:35;100400.97;;;25.31;44.24
76973;BME280;65907;53.640;10.050;2023-08-07T12:32:03;100416.78;;;25.23;44.25
76973;BME280;65907;53.640;10.050;2023-08-07T12:34:28;100413.47;;;25.29;44.22
76973;BME280;65907;53.640;10.050;2023-08-07T12:36:54;100424.34;;;25.43;43.83
76973;BME280;65907;53.640;10.050;2023-08-07T12:39:19;100407.91;;;25.49;43.58
76973;BME280;65907;53.640;10.050;2023-08-07T12:41:45;100400.47;;;25.69;43.28